createdAt,value
2023-02-23T00:00:08.162Z,3.50
2023-02-23T00:02:52.573Z,5.15
2023-02-23T00:05:21.737Z,4.30
2023-02-23T00:07:51.679Z,4.25
2023-02-23T00:10:30.030Z,3.97
2023-02-23T00:13:00.253Z,3.78
2023-02-23T00:15:31.086Z,2.97
2023-02-23T00:18:04.141Z,2.58
2023-02-23T00:20:49.383Z,3.85
2023-02-23T00:23:19.663Z,2.60
2023-02-23T00:25:53.994Z,3.65
2023-02-23T00:28:23.168Z,4.13
2023-02-23T00:30:52.785Z,2.00
2023-02-23T00:33:30.184Z,3.88
2023-02-23T00:36:07.832Z,4.05
2023-02-23T00:38:39.457Z,3.88
2023-02-23T00:41:12.461Z,2.58
2023-02-23T00:43:54.217Z,2.50
2023-02-23T00:46:26.647Z,6.88
2023-02-23T00:49:04.785Z,4.60
2023-02-23T00:51:33.978Z,5.38
2023-02-23T00:54:03.120Z,3.47
2023-02-23T00:56:32.316Z,3.83
2023-02-23T00:59:01.528Z,4.00
2023-02-23T01:01:31.201Z,4.72
2023-02-23T01:04:03.848Z,3.42
2023-02-23T01:06:33.062Z,3.20
2023-02-23T01:09:10.114Z,3.10
2023-02-23T01:11:41.023Z,2.80
2023-02-23T01:14:12.017Z,4.30
2023-02-23T01:16:43.728Z,4.53
2023-02-23T01:19:14.977Z,3.17
2023-02-23T01:21:45.359Z,2.55
2023-02-23T01:24:21.959Z,3.83
2023-02-23T01:26:51.181Z,2.25
2023-02-23T01:29:25.496Z,2.65
2023-02-23T01:31:55.141Z,2.83
2023-02-23T01:36:57.402Z,4.50
2023-02-23T01:39:26.645Z,3.42
2023-02-23T01:41:57.131Z,4.40
2023-02-23T01:44:56.279Z,4.87
2023-02-23T01:47:26.392Z,5.45
2023-02-23T01:49:57.502Z,3.38
2023-02-23T01:52:32.143Z,3.45
2023-02-23T01:55:01.448Z,4.03
2023-02-23T01:57:32.223Z,4.63
2023-02-23T02:00:01.556Z,3.20
2023-02-23T02:02:48.604Z,4.18
2023-02-23T02:05:21.655Z,3.33
2023-02-23T02:08:03.676Z,3.28
2023-02-23T02:10:45.488Z,3.03
2023-02-23T02:13:25.209Z,5.13
2023-02-23T02:16:34.638Z,4.20
2023-02-23T02:22:44.349Z,3.40
2023-02-23T02:25:40.449Z,5.95
2023-02-23T02:28:32.278Z,4.13
2023-02-23T02:34:26.550Z,3.00
2023-02-23T02:37:29.611Z,4.45
2023-02-23T02:40:16.325Z,4.35
2023-02-23T02:43:10.936Z,3.83
2023-02-23T02:45:47.447Z,4.10
2023-02-23T02:48:32.574Z,5.55
2023-02-23T02:51:09.701Z,4.03
2023-02-23T02:53:50.384Z,4.28
2023-02-23T02:56:23.251Z,3.85
2023-02-23T02:58:59.530Z,4.18
2023-02-23T03:01:45.068Z,4.25
2023-02-23T03:04:37.468Z,4.72
2023-02-23T03:07:25.806Z,3.67
2023-02-23T03:10:17.184Z,3.88
2023-02-23T03:13:11.851Z,5.13
2023-02-23T03:16:06.943Z,4.20
2023-02-23T03:19:04.415Z,6.32
2023-02-23T03:24:52.803Z,2.80
2023-02-23T03:27:41.607Z,3.53
2023-02-23T03:30:32.415Z,4.13
2023-02-23T03:33:25.502Z,3.75
2023-02-23T03:36:14.920Z,4.45
2023-02-23T03:39:04.942Z,2.40
2023-02-23T03:41:50.521Z,3.92
2023-02-23T03:44:44.228Z,5.60
2023-02-23T03:47:30.246Z,5.05
2023-02-23T03:50:19.070Z,4.43
2023-02-23T03:53:07.354Z,3.90
2023-02-23T03:58:54.061Z,3.60
2023-02-23T04:01:41.509Z,4.28
2023-02-23T04:04:29.758Z,3.90
2023-02-23T04:07:15.858Z,4.78
2023-02-23T04:10:03.415Z,3.90
2023-02-23T04:12:52.167Z,5.22
2023-02-23T04:15:26.792Z,5.43
2023-02-23T04:17:58.378Z,3.85
2023-02-23T04:20:27.911Z,3.72
2023-02-23T04:22:57.199Z,7.15
2023-02-23T04:25:26.617Z,5.20
2023-02-23T04:27:55.899Z,4.80
2023-02-23T04:30:25.305Z,5.45
2023-02-23T04:32:54.520Z,4.07
2023-02-23T04:35:27.461Z,5.80
2023-02-23T04:37:58.366Z,4.95
2023-02-23T04:40:28.111Z,4.72
2023-02-23T04:42:57.457Z,5.80
2023-02-23T04:45:27.701Z,2.78
2023-02-23T04:47:57.417Z,5.55
2023-02-23T04:50:33.662Z,5.05
2023-02-23T04:53:04.017Z,3.20
2023-02-23T04:55:33.659Z,4.72
2023-02-23T05:00:38.990Z,5.80
2023-02-23T05:03:08.405Z,3.65
2023-02-23T05:05:49.930Z,6.30
2023-02-23T05:08:19.168Z,6.75
2023-02-23T05:10:48.769Z,3.95
2023-02-23T05:13:24.575Z,4.57
2023-02-23T05:15:59.141Z,5.95
2023-02-23T05:18:33.438Z,6.72
2023-02-23T05:21:09.649Z,5.15
2023-02-23T05:23:39.674Z,4.70
2023-02-23T05:26:10.957Z,5.65
2023-02-23T05:28:43.572Z,5.72
2023-02-23T05:31:13.529Z,6.85
2023-02-23T05:33:45.323Z,5.60
2023-02-23T05:36:23.080Z,5.82
2023-02-23T05:38:52.524Z,7.13
2023-02-23T05:41:23.791Z,4.82
2023-02-23T05:43:59.339Z,6.15
2023-02-23T05:46:29.366Z,3.25
2023-02-23T05:49:00.419Z,5.20
2023-02-23T05:51:33.948Z,4.78
2023-02-23T05:54:03.420Z,6.47
2023-02-23T05:56:32.607Z,4.85
2023-02-23T05:59:02.086Z,5.63
2023-02-23T06:01:31.308Z,5.05
2023-02-23T06:04:06.319Z,5.82
2023-02-23T06:06:37.714Z,5.65
2023-02-23T06:09:06.874Z,3.95
2023-02-23T06:11:36.331Z,4.55
2023-02-23T06:14:11.312Z,3.17
2023-02-23T06:16:40.866Z,4.00
2023-02-23T06:19:10.468Z,5.20
2023-02-23T06:21:41.553Z,6.07
2023-02-23T06:24:11.832Z,4.28
2023-02-23T06:26:42.859Z,5.28
2023-02-23T06:29:14.608Z,3.33
2023-02-23T06:31:43.772Z,5.38
2023-02-23T06:34:13.312Z,4.95
2023-02-23T06:36:44.589Z,4.28
2023-02-23T06:39:14.504Z,3.60
2023-02-23T06:41:43.689Z,5.00
2023-02-23T06:44:19.631Z,3.13
2023-02-23T06:46:49.315Z,3.75
2023-02-23T06:49:18.385Z,4.47
2023-02-23T06:51:56.624Z,3.78
2023-02-23T06:54:26.077Z,4.25
2023-02-23T06:56:56.267Z,4.93
2023-02-23T06:59:25.904Z,4.97
2023-02-23T07:01:55.144Z,4.32
2023-02-23T07:04:25.391Z,4.85
2023-02-23T07:06:56.650Z,3.80
2023-02-23T07:09:26.011Z,5.22
2023-02-23T07:11:55.095Z,3.13
2023-02-23T07:14:29.296Z,3.92
2023-02-23T07:16:58.499Z,6.50
2023-02-23T07:19:28.303Z,3.85
2023-02-23T07:22:04.562Z,4.15
2023-02-23T07:24:33.822Z,4.10
2023-02-23T07:27:03.336Z,5.13
2023-02-23T07:29:32.621Z,5.75
2023-02-23T07:32:02.340Z,5.40
2023-02-23T07:34:36.812Z,5.05
2023-02-23T07:37:07.899Z,3.45
2023-02-23T07:39:42.143Z,5.32
2023-02-23T07:42:11.336Z,4.90
2023-02-23T07:44:41.057Z,3.95
2023-02-23T07:49:45.484Z,4.63
2023-02-23T07:52:20.190Z,3.38
2023-02-23T07:54:54.655Z,4.90
2023-02-23T07:57:25.081Z,3.53
2023-02-23T07:59:59.461Z,3.35
2023-02-23T08:02:29.797Z,3.40
2023-02-23T08:05:04.954Z,5.68
2023-02-23T08:07:36.379Z,4.60
2023-02-23T08:10:06.152Z,4.88
2023-02-23T08:12:35.541Z,5.28
2023-02-23T08:15:05.243Z,4.40
2023-02-23T08:17:34.415Z,4.75
2023-02-23T08:20:03.650Z,4.30
2023-02-23T08:25:11.617Z,3.97
2023-02-23T08:27:41.711Z,4.22
2023-02-23T08:30:13.798Z,3.45
2023-02-23T08:32:43.460Z,4.28
2023-02-23T08:35:20.003Z,4.90
2023-02-23T08:37:51.327Z,4.10
2023-02-23T08:40:20.717Z,4.72
2023-02-23T08:42:56.655Z,3.65
2023-02-23T08:45:28.962Z,3.85
2023-02-23T08:47:58.403Z,3.30
2023-02-23T08:50:27.662Z,3.00
2023-02-23T08:52:59.301Z,4.35
2023-02-23T08:55:29.353Z,3.80
2023-02-23T08:58:03.874Z,2.92
2023-02-23T09:00:33.015Z,2.42
2023-02-23T09:03:02.306Z,5.28
2023-02-23T09:05:31.492Z,4.30
2023-02-23T09:08:03.040Z,4.50
2023-02-23T09:10:38.220Z,4.63
2023-02-23T09:13:07.430Z,3.15
2023-02-23T09:15:36.952Z,3.70
2023-02-23T09:18:15.021Z,4.30
2023-02-23T09:20:44.607Z,3.42
2023-02-23T09:23:15.753Z,5.00
2023-02-23T09:25:51.334Z,4.68
2023-02-23T09:28:22.225Z,3.45
2023-02-23T09:30:51.435Z,4.93
2023-02-23T09:33:20.562Z,5.45
2023-02-23T09:35:54.959Z,5.40
2023-02-23T09:38:26.050Z,6.07
2023-02-23T09:40:56.502Z,4.00
2023-02-23T09:43:34.099Z,5.28
2023-02-23T09:46:15.827Z,4.70
2023-02-23T09:48:45.011Z,4.57
2023-02-23T09:51:22.381Z,3.75
2023-02-23T09:53:56.940Z,5.43
2023-02-23T09:56:35.445Z,5.03
2023-02-23T09:59:09.702Z,5.28
2023-02-23T10:02:02.463Z,3.53
2023-02-23T10:04:34.402Z,5.03
2023-02-23T10:07:11.865Z,4.47
2023-02-23T10:10:00.963Z,4.30
2023-02-23T10:12:36.163Z,4.78
2023-02-23T10:15:20.899Z,4.10
2023-02-23T10:18:03.737Z,4.05
2023-02-23T10:20:41.156Z,3.80
2023-02-23T10:23:25.794Z,3.53
2023-02-23T10:26:01.166Z,3.78
2023-02-23T10:28:35.848Z,4.38
2023-02-23T10:31:25.894Z,3.30
2023-02-23T10:33:57.717Z,3.95
2023-02-23T10:39:09.575Z,3.35
2023-02-23T10:41:41.849Z,4.45
2023-02-23T10:44:20.246Z,4.18
2023-02-23T10:46:55.737Z,3.80
2023-02-23T10:49:30.152Z,5.20
2023-02-23T10:52:02.483Z,3.17
2023-02-23T10:54:47.082Z,4.82
2023-02-23T10:57:26.618Z,4.28
2023-02-23T11:00:32.498Z,3.33
2023-02-23T11:03:03.973Z,3.67
2023-02-23T11:05:37.710Z,3.58
2023-02-23T11:08:14.141Z,3.67
2023-02-23T11:10:49.248Z,4.38
2023-02-23T11:13:28.518Z,3.58
2023-02-23T11:16:09.065Z,3.35
2023-02-23T11:18:39.530Z,2.90
2023-02-23T11:21:19.813Z,2.50
2023-02-23T11:23:53.439Z,3.10
2023-02-23T11:26:30.314Z,2.95
2023-02-23T11:29:05.296Z,3.53
2023-02-23T11:31:36.909Z,3.95
2023-02-23T11:34:23.382Z,4.25
2023-02-23T11:37:02.175Z,3.88
2023-02-23T11:39:31.385Z,3.92
2023-02-23T11:42:19.961Z,3.95
2023-02-23T11:45:03.901Z,3.30
2023-02-23T11:50:22.061Z,4.90
2023-02-23T11:55:38.673Z,4.88
2023-02-23T11:58:24.156Z,4.60
2023-02-23T12:01:00.747Z,5.03
2023-02-23T12:03:43.619Z,3.70
2023-02-23T12:06:12.987Z,3.88
2023-02-23T12:08:47.005Z,4.90
2023-02-23T12:11:22.230Z,4.10
2023-02-23T12:13:56.048Z,4.75
2023-02-23T12:16:31.449Z,4.35
2023-02-23T12:19:07.925Z,5.38
2023-02-23T12:21:43.477Z,4.80
2023-02-23T12:24:20.042Z,6.15
2023-02-23T12:26:54.267Z,4.32
2023-02-23T12:29:31.426Z,4.75
2023-02-23T12:32:13.205Z,5.40
2023-02-23T12:34:49.108Z,5.55
2023-02-23T12:37:31.118Z,5.25
2023-02-23T12:42:53.468Z,4.35
2023-02-23T12:45:30.826Z,4.85
2023-02-23T12:53:23.592Z,4.45
2023-02-23T12:56:14.155Z,5.88
2023-02-23T12:58:51.755Z,3.20
2023-02-23T13:01:28.552Z,5.03
2023-02-23T13:04:15.134Z,5.13
2023-02-23T13:06:56.866Z,4.53
2023-02-23T13:09:45.448Z,5.70
2023-02-23T13:12:30.839Z,3.85
2023-02-23T13:17:58.667Z,3.53
2023-02-23T13:23:26.431Z,6.10
2023-02-23T13:26:07.991Z,3.55
2023-02-23T13:28:44.888Z,4.47
2023-02-23T13:31:26.216Z,4.80
2023-02-23T13:33:58.633Z,3.25
2023-02-23T13:36:36.328Z,4.82
2023-02-23T13:39:35.192Z,4.75
2023-02-23T13:42:27.700Z,5.80
2023-02-23T13:45:09.655Z,5.13
2023-02-23T13:50:23.293Z,4.97
2023-02-23T13:52:58.046Z,2.95
2023-02-23T13:55:54.512Z,3.10
2023-02-23T13:58:30.874Z,3.75
2023-02-23T14:01:13.655Z,5.82
2023-02-23T14:03:47.199Z,4.28
2023-02-23T14:06:19.576Z,3.83
2023-02-23T14:09:00.197Z,4.70
2023-02-23T14:11:47.275Z,4.85
2023-02-23T14:17:50.083Z,3.55
2023-02-23T14:20:48.784Z,3.78
2023-02-23T14:23:32.120Z,3.78
2023-02-23T14:29:25.057Z,4.40
2023-02-23T14:32:00.978Z,5.30
2023-02-23T14:34:48.579Z,5.40
2023-02-23T14:37:32.328Z,4.05
2023-02-23T14:40:15.263Z,4.93
2023-02-23T14:42:54.424Z,4.65
2023-02-23T14:45:28.485Z,4.45
2023-02-23T14:48:01.464Z,3.60
2023-02-23T14:50:35.416Z,3.38
2023-02-23T14:53:06.723Z,3.67
2023-02-23T14:55:37.102Z,3.85
2023-02-23T14:58:23.019Z,4.20
2023-02-23T15:00:52.205Z,4.50
2023-02-23T15:03:22.109Z,5.40
2023-02-23T15:06:01.480Z,3.17
2023-02-23T15:08:40.269Z,4.63
2023-02-23T15:11:13.963Z,4.80
2023-02-23T15:13:49.585Z,4.53
2023-02-23T15:16:36.418Z,4.22
2023-02-23T15:19:07.229Z,3.78
2023-02-23T15:21:43.568Z,5.43
2023-02-23T15:24:16.176Z,4.70
2023-02-23T15:29:27.932Z,4.55
2023-02-23T15:32:18.525Z,5.22
2023-02-23T15:34:48.262Z,5.10
2023-02-23T15:37:29.634Z,4.85
2023-02-23T15:40:03.633Z,4.35
2023-02-23T15:42:43.301Z,4.63
2023-02-23T15:45:21.897Z,3.85
2023-02-23T15:48:00.799Z,5.25
2023-02-23T15:50:37.270Z,4.32
2023-02-23T15:53:15.283Z,3.50
2023-02-23T15:55:46.079Z,4.18
2023-02-23T15:58:26.054Z,3.95
2023-02-23T16:00:59.991Z,3.53
2023-02-23T16:03:33.182Z,4.72
2023-02-23T16:06:10.654Z,3.22
2023-02-23T16:08:58.557Z,3.78
2023-02-23T16:11:28.661Z,4.60
2023-02-23T16:13:58.012Z,2.67
2023-02-23T16:16:32.904Z,3.90
2023-02-23T16:19:04.902Z,4.50
2023-02-23T16:21:34.894Z,3.58
2023-02-23T16:24:10.987Z,3.90
2023-02-23T16:26:50.037Z,3.53
2023-02-23T16:29:27.184Z,4.53
2023-02-23T16:32:04.285Z,4.15
2023-02-23T16:34:36.838Z,3.35
2023-02-23T16:37:17.792Z,4.00
2023-02-23T16:39:49.028Z,2.95
2023-02-23T16:42:27.276Z,3.50
2023-02-23T16:44:56.593Z,4.50
2023-02-23T16:47:37.527Z,4.78
2023-02-23T16:50:19.863Z,4.43
2023-02-23T16:52:52.532Z,3.78
2023-02-23T16:55:26.949Z,4.90
2023-02-23T16:57:59.306Z,4.78
2023-02-23T17:00:30.977Z,4.93
2023-02-23T17:03:06.202Z,4.93
2023-02-23T17:05:35.552Z,5.10
2023-02-23T17:08:05.049Z,4.28
2023-02-23T17:10:42.348Z,4.82
2023-02-23T17:13:19.272Z,2.88
2023-02-23T17:15:51.209Z,3.67
2023-02-23T17:18:21.544Z,3.33
2023-02-23T17:20:52.820Z,4.65
2023-02-23T17:23:25.605Z,4.18
2023-02-23T17:25:58.028Z,4.47
2023-02-23T17:28:27.481Z,3.67
2023-02-23T17:30:56.605Z,4.50
2023-02-23T17:33:27.664Z,3.95
2023-02-23T17:35:56.963Z,3.65
2023-02-23T17:38:33.478Z,4.93
2023-02-23T17:41:08.044Z,3.28
2023-02-23T17:43:44.134Z,4.70
2023-02-23T17:46:18.905Z,3.38
2023-02-23T17:48:55.297Z,3.80
2023-02-23T17:51:25.795Z,3.38
2023-02-23T17:56:32.115Z,3.42
2023-02-23T18:01:35.967Z,3.20
2023-02-23T18:04:05.335Z,4.30
2023-02-23T18:06:34.529Z,4.70
2023-02-23T18:09:05.564Z,3.63
2023-02-23T18:11:37.205Z,6.05
2023-02-23T18:14:11.587Z,3.83
2023-02-23T18:16:42.490Z,4.22
2023-02-23T18:19:16.845Z,4.60
2023-02-23T18:21:46.031Z,5.47
2023-02-23T18:24:15.430Z,4.20
2023-02-23T18:26:46.521Z,4.68
2023-02-23T18:29:15.717Z,4.45
2023-02-23T18:31:45.019Z,5.03
2023-02-23T18:34:17.351Z,5.43
2023-02-23T18:36:51.536Z,5.03
2023-02-23T18:39:21.290Z,7.18
2023-02-23T18:41:52.830Z,11.50
2023-02-23T18:44:22.709Z,19.15
2023-02-23T18:46:52.525Z,14.70
2023-02-23T18:49:25.188Z,20.77
2023-02-23T18:51:56.285Z,13.13
2023-02-23T18:54:30.683Z,13.13
2023-02-23T18:57:01.766Z,17.15
2023-02-23T18:59:31.089Z,14.13
2023-02-23T19:02:00.427Z,15.75
2023-02-23T19:04:29.773Z,14.30
2023-02-23T19:07:04.053Z,10.55
2023-02-23T19:09:33.917Z,10.05
2023-02-23T19:12:05.191Z,9.73
2023-02-23T19:14:48.871Z,7.13
2023-02-23T19:17:18.779Z,6.30
2023-02-23T19:19:48.076Z,6.93
2023-02-23T19:22:18.268Z,6.18
2023-02-23T19:24:47.355Z,5.38
2023-02-23T19:27:18.707Z,6.70
2023-02-23T19:29:48.106Z,6.03
2023-02-23T19:32:18.168Z,3.30
2023-02-23T19:34:53.911Z,6.78
2023-02-23T19:37:28.163Z,4.18
2023-02-23T19:39:57.561Z,5.55
2023-02-23T19:42:31.399Z,5.53
2023-02-23T19:45:06.486Z,5.53
2023-02-23T19:47:35.675Z,5.20
2023-02-23T19:50:16.519Z,6.35
2023-02-23T19:52:46.333Z,6.03
2023-02-23T19:55:21.749Z,4.40
2023-02-23T19:57:53.914Z,5.00
2023-02-23T20:00:29.278Z,5.88
2023-02-23T20:03:02.792Z,4.78
2023-02-23T20:05:43.374Z,4.43
2023-02-23T20:08:18.920Z,3.70
2023-02-23T20:10:48.061Z,3.53
2023-02-23T20:13:20.463Z,5.13
2023-02-23T20:15:54.717Z,4.20
2023-02-23T20:18:24.689Z,4.68
2023-02-23T20:20:59.306Z,3.88
2023-02-23T20:23:28.552Z,4.63
2023-02-23T20:25:57.837Z,4.68
2023-02-23T20:28:29.112Z,5.47
2023-02-23T20:31:03.584Z,4.50
2023-02-23T20:33:33.372Z,4.82
2023-02-23T20:36:02.585Z,3.78
2023-02-23T20:38:31.794Z,4.03
2023-02-23T20:41:03.335Z,5.03
2023-02-23T20:43:34.582Z,4.45
2023-02-23T20:46:03.986Z,4.35
2023-02-23T20:48:35.026Z,5.28
2023-02-23T20:51:12.497Z,4.60
2023-02-23T20:53:46.189Z,4.50
2023-02-23T20:56:18.138Z,6.88
2023-02-23T20:58:49.434Z,5.63
2023-02-23T21:01:22.122Z,4.90
2023-02-23T21:03:52.113Z,5.30
2023-02-23T21:06:21.604Z,5.45
2023-02-23T21:09:07.487Z,5.32
2023-02-23T21:11:46.167Z,5.78
2023-02-23T21:14:24.050Z,5.50
2023-02-23T21:16:53.378Z,5.55
2023-02-23T21:19:28.228Z,5.93
2023-02-23T21:22:01.276Z,6.13
2023-02-23T21:24:35.882Z,5.88
2023-02-23T21:27:05.445Z,4.40
2023-02-23T21:29:41.985Z,5.53
2023-02-23T21:32:16.500Z,5.53
2023-02-23T21:34:48.918Z,5.57
2023-02-23T21:37:23.267Z,5.63
2023-02-23T21:39:52.571Z,5.38
2023-02-23T21:42:24.052Z,5.85
2023-02-23T21:44:55.565Z,5.25
2023-02-23T21:47:24.863Z,4.88
2023-02-23T21:49:53.987Z,5.60
2023-02-23T21:52:28.360Z,5.93
2023-02-23T21:54:58.923Z,5.70
2023-02-23T21:57:28.400Z,5.90
2023-02-23T21:59:59.463Z,5.60
2023-02-23T22:02:35.236Z,4.25
2023-02-23T22:05:06.562Z,4.55
2023-02-23T22:07:35.832Z,5.07
2023-02-23T22:10:05.946Z,5.47
2023-02-23T22:12:35.483Z,5.93
2023-02-23T22:15:14.939Z,5.80
2023-02-23T22:17:44.579Z,5.10
2023-02-23T22:20:15.020Z,5.53
2023-02-23T22:22:49.455Z,7.25
2023-02-23T22:25:20.373Z,7.13
2023-02-23T22:27:50.494Z,6.05
2023-02-23T22:30:22.626Z,6.60
2023-02-23T22:32:52.044Z,7.03
2023-02-23T22:35:21.586Z,6.40
2023-02-23T22:37:50.826Z,6.28
2023-02-23T22:40:20.372Z,7.40
2023-02-23T22:42:54.652Z,7.22
2023-02-23T22:45:25.788Z,6.85
2023-02-23T22:47:55.144Z,6.32
2023-02-23T22:50:24.672Z,6.72
2023-02-23T22:52:53.953Z,6.32
2023-02-23T22:55:23.185Z,6.50
2023-02-23T22:57:52.308Z,7.20
2023-02-23T23:00:21.790Z,5.75
2023-02-23T23:02:53.182Z,6.07
2023-02-23T23:05:23.869Z,5.63
2023-02-23T23:08:04.311Z,6.45
2023-02-23T23:10:33.549Z,6.38
2023-02-23T23:13:03.440Z,6.03
2023-02-23T23:15:34.017Z,5.93
2023-02-23T23:18:08.775Z,5.38
2023-02-23T23:20:43.056Z,6.07
2023-02-23T23:23:12.347Z,5.78
2023-02-23T23:25:41.908Z,5.93
2023-02-23T23:28:13.994Z,7.20
2023-02-23T23:30:46.824Z,6.35
2023-02-23T23:33:18.528Z,6.53
2023-02-23T23:35:48.713Z,6.78
2023-02-23T23:38:20.044Z,5.45
2023-02-23T23:40:53.178Z,6.63
2023-02-23T23:43:33.268Z,5.93
2023-02-23T23:46:08.269Z,5.55
2023-02-23T23:48:41.706Z,6.82
2023-02-23T23:51:11.271Z,5.18
2023-02-23T23:53:40.386Z,5.90
2023-02-23T23:56:11.602Z,5.47
2023-02-23T23:58:40.781Z,5.40
